sensor_id;sensor_type;location;lat;lon;timestamp;P1;durP1;ratioP1;P2;durP2;ratioP2
12585;SDS011;6358;50.760;0.282;2022-12-18T00:01:44;4.73;;;4.30;;
12585;SDS011;6358;50.760;0.282;2022-12-18T00:04:20;5.63;;;5.13;;
12585;SDS011;6358;50.760;0.282;2022-12-18T00:06:47;5.47;;;4.17;;
12585;SDS011;6358;50.760;0.282;2022-12-18T00:09:13;4.87;;;4.47;;
12585;SDS011;6358;50.760;0.282;2022-12-18T00:11:39;4.67;;;4.27;;
12585;SDS011;6358;50.760;0.282;2022-12-18T00:14:05;4.90;;;4.40;;
12585;SDS011;6358;50.760;0.282;2022-12-18T00:16:31;7.03;;;4.40;;
12585;SDS011;6358;50.760;0.282;2022-12-18T00:19:00;5.00;;;4.50;;
12585;SDS011;6358;50.760;0.282;2022-12-18T00:21:27;4.50;;;4.10;;
12585;SDS011;6358;50.760;0.282;2022-12-18T00:23:53;4.63;;;4.23;;
12585;SDS011;6358;50.760;0.282;2022-12-18T00:26:20;5.43;;;4.37;;
12585;SDS011;6358;50.760;0.282;2022-12-18T00:28:47;5.03;;;4.53;;
12585;SDS011;6358;50.760;0.282;2022-12-18T00:31:15;4.93;;;4.10;;
12585;SDS011;6358;50.760;0.282;2022-12-18T00:33:41;5.53;;;4.20;;
12585;SDS011;6358;50.760;0.282;2022-12-18T00:36:12;4.97;;;4.47;;
12585;SDS011;6358;50.760;0.282;2022-12-18T00:38:38;5.27;;;4.73;;
12585;SDS011;6358;50.760;0.282;2022-12-18T00:41:05;5.30;;;4.33;;
12585;SDS011;6358;50.760;0.282;2022-12-18T00:43:31;5.03;;;4.10;;
12585;SDS011;6358;50.760;0.282;2022-12-18T00:45:57;4.30;;;3.90;;
12585;SDS011;6358;50.760;0.282;2022-12-18T00:48:23;4.93;;;3.50;;
12585;SDS011;6358;50.760;0.282;2022-12-18T00:50:49;4.33;;;3.90;;
12585;SDS011;6358;50.760;0.282;2022-12-18T00:53:16;4.10;;;3.70;;
12585;SDS011;6358;50.760;0.282;2022-12-18T00:55:42;4.37;;;3.97;;
12585;SDS011;6358;50.760;0.282;2022-12-18T00:58:09;4.70;;;4.00;;
12585;SDS011;6358;50.760;0.282;2022-12-18T01:00:35;4.17;;;3.77;;
12585;SDS011;6358;50.760;0.282;2022-12-18T01:03:01;4.30;;;3.90;;
12585;SDS011;6358;50.760;0.282;2022-12-18T01:05:27;4.63;;;3.90;;
12585;SDS011;6358;50.760;0.282;2022-12-18T01:07:54;4.63;;;4.13;;
12585;SDS011;6358;50.760;0.282;2022-12-18T01:10:21;4.00;;;3.60;;
12585;SDS011;6358;50.760;0.282;2022-12-18T01:12:47;4.20;;;3.50;;
12585;SDS011;6358;50.760;0.282;2022-12-18T01:15:14;5.20;;;4.03;;
12585;SDS011;6358;50.760;0.282;2022-12-18T01:17:40;4.17;;;3.70;;
12585;SDS011;6358;50.760;0.282;2022-12-18T01:20:07;4.10;;;3.70;;
12585;SDS011;6358;50.760;0.282;2022-12-18T01:22:33;4.30;;;3.90;;
12585;SDS011;6358;50.760;0.282;2022-12-18T01:24:59;3.60;;;3.30;;
12585;SDS011;6358;50.760;0.282;2022-12-18T01:27:25;4.27;;;3.83;;
12585;SDS011;6358;50.760;0.282;2022-12-18T01:29:52;3.67;;;3.37;;
12585;SDS011;6358;50.760;0.282;2022-12-18T01:32:18;3.43;;;3.13;;
12585;SDS011;6358;50.760;0.282;2022-12-18T01:34:44;3.60;;;3.30;;
12585;SDS011;6358;50.760;0.282;2022-12-18T01:37:10;3.70;;;3.20;;
12585;SDS011;6358;50.760;0.282;2022-12-18T01:39:36;3.90;;;3.50;;
12585;SDS011;6358;50.760;0.282;2022-12-18T01:42:02;3.90;;;3.37;;
12585;SDS011;6358;50.760;0.282;2022-12-18T01:49:51;3.80;;;3.40;;
12585;SDS011;6358;50.760;0.282;2022-12-18T01:52:18;4.60;;;3.10;;
12585;SDS011;6358;50.760;0.282;2022-12-18T01:54:44;3.30;;;3.00;;
12585;SDS011;6358;50.760;0.282;2022-12-18T01:57:11;3.47;;;3.17;;
12585;SDS011;6358;50.760;0.282;2022-12-18T01:59:37;3.33;;;3.03;;
12585;SDS011;6358;50.760;0.282;2022-12-18T02:02:04;3.33;;;3.03;;
12585;SDS011;6358;50.760;0.282;2022-12-18T02:04:31;2.90;;;2.70;;
12585;SDS011;6358;50.760;0.282;2022-12-18T02:07:04;3.20;;;2.90;;
12585;SDS011;6358;50.760;0.282;2022-12-18T02:09:41;3.20;;;2.90;;
12585;SDS011;6358;50.760;0.282;2022-12-18T02:12:19;3.60;;;3.30;;
12585;SDS011;6358;50.760;0.282;2022-12-18T02:17:16;3.70;;;3.30;;
12585;SDS011;6358;50.760;0.282;2022-12-18T02:25:13;3.70;;;3.10;;
12585;SDS011;6358;50.760;0.282;2022-12-18T02:27:44;3.43;;;3.03;;
12585;SDS011;6358;50.760;0.282;2022-12-18T02:30:10;2.70;;;2.50;;
12585;SDS011;6358;50.760;0.282;2022-12-18T02:32:41;3.13;;;2.83;;
12585;SDS011;6358;50.760;0.282;2022-12-18T02:35:10;4.03;;;2.63;;
12585;SDS011;6358;50.760;0.282;2022-12-18T02:37:37;4.27;;;3.10;;
12585;SDS011;6358;50.760;0.282;2022-12-18T02:40:05;4.80;;;3.10;;
12585;SDS011;6358;50.760;0.282;2022-12-18T02:42:31;4.17;;;2.80;;
12585;SDS011;6358;50.760;0.282;2022-12-18T02:44:58;4.23;;;2.87;;
12585;SDS011;6358;50.760;0.282;2022-12-18T02:47:24;2.97;;;2.70;;
12585;SDS011;6358;50.760;0.282;2022-12-18T02:52:23;3.23;;;2.80;;
12585;SDS011;6358;50.760;0.282;2022-12-18T03:00:08;3.60;;;2.97;;
12585;SDS011;6358;50.760;0.282;2022-12-18T03:02:50;2.97;;;2.67;;
12585;SDS011;6358;50.760;0.282;2022-12-18T03:05:20;4.00;;;3.07;;
12585;SDS011;6358;50.760;0.282;2022-12-18T03:10:27;3.47;;;2.80;;
12585;SDS011;6358;50.760;0.282;2022-12-18T03:13:05;3.23;;;2.93;;
12585;SDS011;6358;50.760;0.282;2022-12-18T03:15:34;3.37;;;3.03;;
12585;SDS011;6358;50.760;0.282;2022-12-18T03:18:20;4.20;;;2.83;;
12585;SDS011;6358;50.760;0.282;2022-12-18T03:20:47;3.03;;;2.70;;
12585;SDS011;6358;50.760;0.282;2022-12-18T03:23:20;3.53;;;2.70;;
12585;SDS011;6358;50.760;0.282;2022-12-18T03:25:47;3.80;;;2.70;;
12585;SDS011;6358;50.760;0.282;2022-12-18T03:28:16;3.07;;;2.30;;
12585;SDS011;6358;50.760;0.282;2022-12-18T03:30:45;3.80;;;2.90;;
12585;SDS011;6358;50.760;0.282;2022-12-18T03:33:13;3.00;;;2.60;;
12585;SDS011;6358;50.760;0.282;2022-12-18T03:35:42;2.53;;;2.33;;
12585;SDS011;6358;50.760;0.282;2022-12-18T03:38:09;2.97;;;2.57;;
12585;SDS011;6358;50.760;0.282;2022-12-18T03:40:49;3.13;;;2.70;;
12585;SDS011;6358;50.760;0.282;2022-12-18T03:43:32;3.37;;;2.60;;
12585;SDS011;6358;50.760;0.282;2022-12-18T03:46:08;2.80;;;2.50;;
12585;SDS011;6358;50.760;0.282;2022-12-18T03:48:39;3.67;;;2.70;;
12585;SDS011;6358;50.760;0.282;2022-12-18T03:51:08;3.20;;;2.47;;
12585;SDS011;6358;50.760;0.282;2022-12-18T03:53:38;2.60;;;2.40;;
12585;SDS011;6358;50.760;0.282;2022-12-18T03:56:05;3.23;;;2.47;;
12585;SDS011;6358;50.760;0.282;2022-12-18T03:58:32;3.83;;;2.63;;
12585;SDS011;6358;50.760;0.282;2022-12-18T04:01:00;2.90;;;2.53;;
12585;SDS011;6358;50.760;0.282;2022-12-18T04:03:27;3.30;;;2.30;;
12585;SDS011;6358;50.760;0.282;2022-12-18T04:05:55;3.97;;;2.70;;
12585;SDS011;6358;50.760;0.282;2022-12-18T04:08:22;4.10;;;2.60;;
12585;SDS011;6358;50.760;0.282;2022-12-18T04:10:49;3.50;;;2.80;;
12585;SDS011;6358;50.760;0.282;2022-12-18T04:13:22;4.23;;;2.83;;
12585;SDS011;6358;50.760;0.282;2022-12-18T04:15:48;2.90;;;2.60;;
12585;SDS011;6358;50.760;0.282;2022-12-18T04:18:15;3.00;;;2.60;;
12585;SDS011;6358;50.760;0.282;2022-12-18T04:20:41;3.43;;;2.60;;
12585;SDS011;6358;50.760;0.282;2022-12-18T04:23:07;2.87;;;2.57;;
12585;SDS011;6358;50.760;0.282;2022-12-18T04:25:33;3.40;;;2.37;;
12585;SDS011;6358;50.760;0.282;2022-12-18T04:27:59;3.80;;;2.47;;
12585;SDS011;6358;50.760;0.282;2022-12-18T04:30:25;2.77;;;2.57;;
12585;SDS011;6358;50.760;0.282;2022-12-18T04:32:51;3.60;;;2.60;;
12585;SDS011;6358;50.760;0.282;2022-12-18T04:35:17;3.77;;;2.43;;
12585;SDS011;6358;50.760;0.282;2022-12-18T04:37:43;2.87;;;2.60;;
12585;SDS011;6358;50.760;0.282;2022-12-18T04:40:09;3.63;;;2.40;;
12585;SDS011;6358;50.760;0.282;2022-12-18T04:42:36;3.87;;;2.70;;
12585;SDS011;6358;50.760;0.282;2022-12-18T04:45:02;3.43;;;2.57;;
12585;SDS011;6358;50.760;0.282;2022-12-18T04:47:28;3.27;;;2.67;;
12585;SDS011;6358;50.760;0.282;2022-12-18T04:49:54;4.07;;;2.47;;
12585;SDS011;6358;50.760;0.282;2022-12-18T04:52:20;2.47;;;2.27;;
12585;SDS011;6358;50.760;0.282;2022-12-18T04:54:46;3.40;;;2.47;;
12585;SDS011;6358;50.760;0.282;2022-12-18T04:57:12;2.97;;;2.60;;
12585;SDS011;6358;50.760;0.282;2022-12-18T04:59:38;3.37;;;2.50;;
12585;SDS011;6358;50.760;0.282;2022-12-18T05:02:05;2.53;;;2.33;;
12585;SDS011;6358;50.760;0.282;2022-12-18T05:04:31;2.93;;;2.50;;
12585;SDS011;6358;50.760;0.282;2022-12-18T05:06:57;4.73;;;2.60;;
12585;SDS011;6358;50.760;0.282;2022-12-18T05:09:23;4.00;;;2.80;;
12585;SDS011;6358;50.760;0.282;2022-12-18T05:11:49;2.93;;;2.53;;
12585;SDS011;6358;50.760;0.282;2022-12-18T05:14:15;3.50;;;2.57;;
12585;SDS011;6358;50.760;0.282;2022-12-18T05:16:41;3.97;;;2.57;;
12585;SDS011;6358;50.760;0.282;2022-12-18T05:19:07;4.10;;;2.67;;
12585;SDS011;6358;50.760;0.282;2022-12-18T05:21:33;3.07;;;2.27;;
12585;SDS011;6358;50.760;0.282;2022-12-18T05:23:59;2.87;;;2.30;;
12585;SDS011;6358;50.760;0.282;2022-12-18T05:26:25;3.30;;;2.57;;
12585;SDS011;6358;50.760;0.282;2022-12-18T05:28:51;4.13;;;3.10;;
12585;SDS011;6358;50.760;0.282;2022-12-18T05:31:17;2.90;;;2.20;;
12585;SDS011;6358;50.760;0.282;2022-12-18T05:33:44;3.70;;;2.77;;
12585;SDS011;6358;50.760;0.282;2022-12-18T05:36:10;2.87;;;2.50;;
12585;SDS011;6358;50.760;0.282;2022-12-18T05:38:37;3.93;;;2.70;;
12585;SDS011;6358;50.760;0.282;2022-12-18T05:41:03;3.37;;;2.67;;
12585;SDS011;6358;50.760;0.282;2022-12-18T05:43:29;3.27;;;2.50;;
12585;SDS011;6358;50.760;0.282;2022-12-18T05:45:56;3.80;;;2.60;;
12585;SDS011;6358;50.760;0.282;2022-12-18T05:48:22;3.47;;;2.77;;
12585;SDS011;6358;50.760;0.282;2022-12-18T05:50:49;3.80;;;2.63;;
12585;SDS011;6358;50.760;0.282;2022-12-18T05:53:16;3.13;;;2.43;;
12585;SDS011;6358;50.760;0.282;2022-12-18T05:55:44;4.03;;;2.60;;
12585;SDS011;6358;50.760;0.282;2022-12-18T05:58:10;3.33;;;2.60;;
12585;SDS011;6358;50.760;0.282;2022-12-18T06:00:37;2.90;;;2.57;;
12585;SDS011;6358;50.760;0.282;2022-12-18T06:03:05;3.83;;;2.83;;
12585;SDS011;6358;50.760;0.282;2022-12-18T06:05:34;2.93;;;2.50;;
12585;SDS011;6358;50.760;0.282;2022-12-18T06:08:01;3.30;;;2.80;;
12585;SDS011;6358;50.760;0.282;2022-12-18T06:10:27;3.67;;;2.93;;
12585;SDS011;6358;50.760;0.282;2022-12-18T06:12:53;3.73;;;2.50;;
12585;SDS011;6358;50.760;0.282;2022-12-18T06:15:19;3.23;;;2.83;;
12585;SDS011;6358;50.760;0.282;2022-12-18T06:17:45;3.63;;;2.67;;
12585;SDS011;6358;50.760;0.282;2022-12-18T06:20:11;3.60;;;2.80;;
12585;SDS011;6358;50.760;0.282;2022-12-18T06:22:37;4.43;;;2.60;;
12585;SDS011;6358;50.760;0.282;2022-12-18T06:25:04;4.30;;;2.70;;
12585;SDS011;6358;50.760;0.282;2022-12-18T06:27:31;4.23;;;2.70;;
12585;SDS011;6358;50.760;0.282;2022-12-18T06:29:58;2.87;;;2.43;;
12585;SDS011;6358;50.760;0.282;2022-12-18T06:32:24;3.20;;;2.47;;
12585;SDS011;6358;50.760;0.282;2022-12-18T06:34:50;3.50;;;2.40;;
12585;SDS011;6358;50.760;0.282;2022-12-18T06:37:17;3.37;;;2.50;;
12585;SDS011;6358;50.760;0.282;2022-12-18T06:39:43;3.33;;;2.60;;
12585;SDS011;6358;50.760;0.282;2022-12-18T06:42:09;4.10;;;2.80;;
12585;SDS011;6358;50.760;0.282;2022-12-18T06:44:35;3.63;;;2.67;;
12585;SDS011;6358;50.760;0.282;2022-12-18T06:47:01;3.83;;;3.00;;
12585;SDS011;6358;50.760;0.282;2022-12-18T06:49:27;3.60;;;2.63;;
12585;SDS011;6358;50.760;0.282;2022-12-18T06:51:53;3.50;;;2.73;;
12585;SDS011;6358;50.760;0.282;2022-12-18T06:54:19;3.43;;;2.37;;
12585;SDS011;6358;50.760;0.282;2022-12-18T06:56:45;3.03;;;2.63;;
12585;SDS011;6358;50.760;0.282;2022-12-18T06:59:12;3.27;;;2.57;;
12585;SDS011;6358;50.760;0.282;2022-12-18T07:01:39;3.97;;;2.90;;
12585;SDS011;6358;50.760;0.282;2022-12-18T07:04:05;4.10;;;2.97;;
12585;SDS011;6358;50.760;0.282;2022-12-18T07:06:31;3.57;;;2.30;;
12585;SDS011;6358;50.760;0.282;2022-12-18T07:08:57;3.67;;;2.60;;
12585;SDS011;6358;50.760;0.282;2022-12-18T07:11:23;3.67;;;2.57;;
12585;SDS011;6358;50.760;0.282;2022-12-18T07:13:50;3.57;;;2.50;;
12585;SDS011;6358;50.760;0.282;2022-12-18T07:16:17;2.83;;;2.53;;
12585;SDS011;6358;50.760;0.282;2022-12-18T07:18:43;4.70;;;2.87;;
12585;SDS011;6358;50.760;0.282;2022-12-18T07:21:13;3.73;;;2.90;;
12585;SDS011;6358;50.760;0.282;2022-12-18T07:23:40;3.10;;;2.50;;
12585;SDS011;6358;50.760;0.282;2022-12-18T07:26:07;2.73;;;2.40;;
12585;SDS011;6358;50.760;0.282;2022-12-18T07:28:34;5.50;;;2.90;;
12585;SDS011;6358;50.760;0.282;2022-12-18T07:31:04;3.90;;;2.60;;
12585;SDS011;6358;50.760;0.282;2022-12-18T07:33:31;4.47;;;2.80;;
12585;SDS011;6358;50.760;0.282;2022-12-18T07:35:58;3.77;;;2.60;;
12585;SDS011;6358;50.760;0.282;2022-12-18T07:38:24;3.90;;;3.07;;
12585;SDS011;6358;50.760;0.282;2022-12-18T07:40:51;3.80;;;2.50;;
12585;SDS011;6358;50.760;0.282;2022-12-18T07:43:17;2.90;;;2.50;;
12585;SDS011;6358;50.760;0.282;2022-12-18T07:45:43;3.73;;;2.73;;
12585;SDS011;6358;50.760;0.282;2022-12-18T07:48:09;3.80;;;2.73;;
12585;SDS011;6358;50.760;0.282;2022-12-18T07:50:36;3.97;;;2.70;;
12585;SDS011;6358;50.760;0.282;2022-12-18T07:53:02;3.07;;;2.47;;
12585;SDS011;6358;50.760;0.282;2022-12-18T07:55:30;5.93;;;2.63;;
12585;SDS011;6358;50.760;0.282;2022-12-18T07:57:56;4.03;;;2.90;;
12585;SDS011;6358;50.760;0.282;2022-12-18T08:00:22;3.07;;;2.60;;
12585;SDS011;6358;50.760;0.282;2022-12-18T08:02:49;5.37;;;2.97;;
12585;SDS011;6358;50.760;0.282;2022-12-18T08:05:15;4.10;;;2.90;;
12585;SDS011;6358;50.760;0.282;2022-12-18T08:07:41;4.27;;;2.73;;
12585;SDS011;6358;50.760;0.282;2022-12-18T08:10:07;3.97;;;2.83;;
12585;SDS011;6358;50.760;0.282;2022-12-18T08:12:33;3.40;;;2.97;;
12585;SDS011;6358;50.760;0.282;2022-12-18T08:14:59;3.90;;;2.70;;
12585;SDS011;6358;50.760;0.282;2022-12-18T08:17:25;3.47;;;2.63;;
12585;SDS011;6358;50.760;0.282;2022-12-18T08:19:51;4.37;;;3.20;;
12585;SDS011;6358;50.760;0.282;2022-12-18T08:22:17;4.80;;;2.93;;
12585;SDS011;6358;50.760;0.282;2022-12-18T08:24:44;5.37;;;3.03;;
12585;SDS011;6358;50.760;0.282;2022-12-18T08:27:10;4.33;;;3.00;;
12585;SDS011;6358;50.760;0.282;2022-12-18T08:29:36;3.37;;;2.67;;
12585;SDS011;6358;50.760;0.282;2022-12-18T08:32:03;3.73;;;2.90;;
12585;SDS011;6358;50.760;0.282;2022-12-18T08:34:29;4.40;;;2.90;;
12585;SDS011;6358;50.760;0.282;2022-12-18T08:36:55;3.97;;;3.00;;
12585;SDS011;6358;50.760;0.282;2022-12-18T08:39:21;5.93;;;2.90;;
12585;SDS011;6358;50.760;0.282;2022-12-18T08:41:47;5.20;;;3.20;;
12585;SDS011;6358;50.760;0.282;2022-12-18T08:44:33;5.10;;;3.30;;
12585;SDS011;6358;50.760;0.282;2022-12-18T08:47:02;5.83;;;3.57;;
12585;SDS011;6358;50.760;0.282;2022-12-18T08:49:28;6.47;;;3.87;;
12585;SDS011;6358;50.760;0.282;2022-12-18T08:51:55;4.97;;;3.63;;
12585;SDS011;6358;50.760;0.282;2022-12-18T08:54:24;4.63;;;3.23;;
12585;SDS011;6358;50.760;0.282;2022-12-18T08:56:51;7.53;;;4.30;;
12585;SDS011;6358;50.760;0.282;2022-12-18T08:59:17;7.80;;;5.23;;
12585;SDS011;6358;50.760;0.282;2022-12-18T09:01:44;11.50;;;7.33;;
12585;SDS011;6358;50.760;0.282;2022-12-18T09:04:10;16.60;;;10.47;;
12585;SDS011;6358;50.760;0.282;2022-12-18T09:06:36;18.87;;;13.43;;
12585;SDS011;6358;50.760;0.282;2022-12-18T09:09:03;22.23;;;14.80;;
12585;SDS011;6358;50.760;0.282;2022-12-18T09:11:30;17.80;;;14.73;;
12585;SDS011;6358;50.760;0.282;2022-12-18T09:13:56;20.40;;;15.87;;
12585;SDS011;6358;50.760;0.282;2022-12-18T09:16:24;20.97;;;16.67;;
12585;SDS011;6358;50.760;0.282;2022-12-18T09:18:50;19.57;;;17.33;;
12585;SDS011;6358;50.760;0.282;2022-12-18T09:21:20;28.13;;;23.00;;
12585;SDS011;6358;50.760;0.282;2022-12-18T09:23:50;27.90;;;24.77;;
12585;SDS011;6358;50.760;0.282;2022-12-18T09:26:16;30.53;;;25.53;;
12585;SDS011;6358;50.760;0.282;2022-12-18T09:28:42;30.23;;;25.20;;
12585;SDS011;6358;50.760;0.282;2022-12-18T09:31:11;30.20;;;26.17;;
12585;SDS011;6358;50.760;0.282;2022-12-18T09:33:37;29.97;;;25.50;;
12585;SDS011;6358;50.760;0.282;2022-12-18T09:36:04;29.10;;;25.50;;
12585;SDS011;6358;50.760;0.282;2022-12-18T09:38:31;30.63;;;25.50;;
12585;SDS011;6358;50.760;0.282;2022-12-18T09:40:59;28.50;;;23.40;;
12585;SDS011;6358;50.760;0.282;2022-12-18T09:45:59;28.73;;;22.50;;
12585;SDS011;6358;50.760;0.282;2022-12-18T09:48:37;25.97;;;21.73;;
12585;SDS011;6358;50.760;0.282;2022-12-18T09:51:13;23.10;;;19.87;;
12585;SDS011;6358;50.760;0.282;2022-12-18T09:53:41;23.97;;;19.97;;
12585;SDS011;6358;50.760;0.282;2022-12-18T09:56:12;22.63;;;19.27;;
12585;SDS011;6358;50.760;0.282;2022-12-18T09:58:42;19.87;;;16.70;;
12585;SDS011;6358;50.760;0.282;2022-12-18T10:01:21;19.93;;;16.80;;
12585;SDS011;6358;50.760;0.282;2022-12-18T10:03:47;21.83;;;15.50;;
12585;SDS011;6358;50.760;0.282;2022-12-18T10:06:29;16.57;;;14.80;;
12585;SDS011;6358;50.760;0.282;2022-12-18T10:09:01;17.17;;;14.73;;
12585;SDS011;6358;50.760;0.282;2022-12-18T10:14:04;14.73;;;13.10;;
12585;SDS011;6358;50.760;0.282;2022-12-18T10:21:50;12.37;;;10.60;;
12585;SDS011;6358;50.760;0.282;2022-12-18T10:24:21;13.20;;;10.97;;
12585;SDS011;6358;50.760;0.282;2022-12-18T10:26:51;12.70;;;10.87;;
12585;SDS011;6358;50.760;0.282;2022-12-18T10:29:18;14.50;;;10.17;;
12585;SDS011;6358;50.760;0.282;2022-12-18T10:31:45;11.63;;;9.33;;
12585;SDS011;6358;50.760;0.282;2022-12-18T10:34:11;12.27;;;9.37;;
12585;SDS011;6358;50.760;0.282;2022-12-18T10:36:38;12.47;;;9.53;;
12585;SDS011;6358;50.760;0.282;2022-12-18T10:41:47;11.20;;;8.60;;
12585;SDS011;6358;50.760;0.282;2022-12-18T10:44:20;9.50;;;7.93;;
12585;SDS011;6358;50.760;0.282;2022-12-18T10:46:48;10.87;;;8.57;;
12585;SDS011;6358;50.760;0.282;2022-12-18T10:49:18;10.57;;;8.13;;
12585;SDS011;6358;50.760;0.282;2022-12-18T10:51:45;8.43;;;7.50;;
12585;SDS011;6358;50.760;0.282;2022-12-18T10:54:15;9.87;;;7.10;;
12585;SDS011;6358;50.760;0.282;2022-12-18T10:56:43;10.03;;;6.90;;
12585;SDS011;6358;50.760;0.282;2022-12-18T10:59:10;8.77;;;6.67;;
12585;SDS011;6358;50.760;0.282;2022-12-18T11:01:50;11.07;;;7.07;;
12585;SDS011;6358;50.760;0.282;2022-12-18T11:04:23;10.03;;;6.50;;
12585;SDS011;6358;50.760;0.282;2022-12-18T11:09:23;7.83;;;5.80;;
12585;SDS011;6358;50.760;0.282;2022-12-18T11:11:50;9.73;;;5.70;;
12585;SDS011;6358;50.760;0.282;2022-12-18T11:14:20;7.03;;;5.30;;
12585;SDS011;6358;50.760;0.282;2022-12-18T11:16:47;5.63;;;5.03;;
12585;SDS011;6358;50.760;0.282;2022-12-18T11:19:31;6.77;;;5.47;;
12585;SDS011;6358;50.760;0.282;2022-12-18T11:21:58;7.37;;;4.90;;
12585;SDS011;6358;50.760;0.282;2022-12-18T11:24:34;6.43;;;5.13;;
12585;SDS011;6358;50.760;0.282;2022-12-18T11:27:01;8.30;;;5.20;;
12585;SDS011;6358;50.760;0.282;2022-12-18T11:29:36;7.43;;;5.10;;
12585;SDS011;6358;50.760;0.282;2022-12-18T11:34:41;7.17;;;4.87;;
12585;SDS011;6358;50.760;0.282;2022-12-18T11:37:10;5.83;;;4.67;;
12585;SDS011;6358;50.760;0.282;2022-12-18T11:39:38;8.30;;;4.80;;
12585;SDS011;6358;50.760;0.282;2022-12-18T11:42:11;7.87;;;4.90;;
12585;SDS011;6358;50.760;0.282;2022-12-18T11:44:46;6.13;;;4.37;;
12585;SDS011;6358;50.760;0.282;2022-12-18T11:49:47;6.80;;;4.90;;
12585;SDS011;6358;50.760;0.282;2022-12-18T11:54:40;6.60;;;4.60;;
12585;SDS011;6358;50.760;0.282;2022-12-18T11:57:24;5.20;;;3.97;;
12585;SDS011;6358;50.760;0.282;2022-12-18T12:15:17;4.63;;;3.87;;
12585;SDS011;6358;50.760;0.282;2022-12-18T12:17:50;4.97;;;3.87;;
12585;SDS011;6358;50.760;0.282;2022-12-18T12:27:55;5.00;;;3.57;;
12585;SDS011;6358;50.760;0.282;2022-12-18T12:30:36;5.53;;;4.17;;
12585;SDS011;6358;50.760;0.282;2022-12-18T12:38:21;4.27;;;3.37;;
12585;SDS011;6358;50.760;0.282;2022-12-18T12:40:51;6.23;;;4.00;;
12585;SDS011;6358;50.760;0.282;2022-12-18T12:50:53;5.90;;;3.80;;
12585;SDS011;6358;50.760;0.282;2022-12-18T12:53:22;5.90;;;4.00;;
12585;SDS011;6358;50.760;0.282;2022-12-18T12:55:49;4.33;;;3.43;;
12585;SDS011;6358;50.760;0.282;2022-12-18T13:01:04;5.30;;;3.47;;
12585;SDS011;6358;50.760;0.282;2022-12-18T13:03:36;6.70;;;3.80;;
12585;SDS011;6358;50.760;0.282;2022-12-18T13:06:18;5.77;;;4.00;;
12585;SDS011;6358;50.760;0.282;2022-12-18T13:08:53;4.80;;;3.63;;
12585;SDS011;6358;50.760;0.282;2022-12-18T13:14:23;4.77;;;3.57;;
12585;SDS011;6358;50.760;0.282;2022-12-18T13:16:49;5.77;;;3.27;;
12585;SDS011;6358;50.760;0.282;2022-12-18T13:19:22;5.40;;;3.50;;
12585;SDS011;6358;50.760;0.282;2022-12-18T13:21:53;4.17;;;3.23;;
12585;SDS011;6358;50.760;0.282;2022-12-18T13:24:27;3.97;;;3.07;;
12585;SDS011;6358;50.760;0.282;2022-12-18T13:26:56;5.20;;;3.37;;
12585;SDS011;6358;50.760;0.282;2022-12-18T13:29:41;4.13;;;3.03;;
12585;SDS011;6358;50.760;0.282;2022-12-18T13:32:24;4.43;;;3.23;;
12585;SDS011;6358;50.760;0.282;2022-12-18T13:37:42;3.50;;;3.10;;
12585;SDS011;6358;50.760;0.282;2022-12-18T13:42:53;4.23;;;3.30;;
12585;SDS011;6358;50.760;0.282;2022-12-18T13:45:42;4.77;;;3.10;;
12585;SDS011;6358;50.760;0.282;2022-12-18T13:48:22;4.77;;;3.17;;
12585;SDS011;6358;50.760;0.282;2022-12-18T13:51:08;4.50;;;2.93;;
12585;SDS011;6358;50.760;0.282;2022-12-18T13:53:36;4.43;;;2.90;;
12585;SDS011;6358;50.760;0.282;2022-12-18T13:56:04;4.73;;;3.20;;
12585;SDS011;6358;50.760;0.282;2022-12-18T13:58:31;3.47;;;2.73;;
12585;SDS011;6358;50.760;0.282;2022-12-18T14:00:57;4.00;;;3.10;;
12585;SDS011;6358;50.760;0.282;2022-12-18T14:03:27;3.63;;;2.90;;
12585;SDS011;6358;50.760;0.282;2022-12-18T14:06:03;4.23;;;3.07;;
12585;SDS011;6358;50.760;0.282;2022-12-18T14:08:32;4.13;;;3.07;;
12585;SDS011;6358;50.760;0.282;2022-12-18T14:10:58;5.27;;;2.90;;
12585;SDS011;6358;50.760;0.282;2022-12-18T14:13:29;4.70;;;2.80;;
12585;SDS011;6358;50.760;0.282;2022-12-18T14:15:56;4.90;;;2.97;;
12585;SDS011;6358;50.760;0.282;2022-12-18T14:20:49;4.33;;;2.93;;
12585;SDS011;6358;50.760;0.282;2022-12-18T14:23:35;3.33;;;2.80;;
12585;SDS011;6358;50.760;0.282;2022-12-18T14:26:02;5.27;;;3.10;;
12585;SDS011;6358;50.760;0.282;2022-12-18T14:28:29;4.03;;;3.00;;
12585;SDS011;6358;50.760;0.282;2022-12-18T14:30:55;4.27;;;3.20;;
12585;SDS011;6358;50.760;0.282;2022-12-18T14:33:23;3.13;;;2.53;;
12585;SDS011;6358;50.760;0.282;2022-12-18T14:36:05;3.63;;;2.87;;
12585;SDS011;6358;50.760;0.282;2022-12-18T14:40:58;4.83;;;3.13;;
12585;SDS011;6358;50.760;0.282;2022-12-18T14:43:25;3.70;;;2.67;;
12585;SDS011;6358;50.760;0.282;2022-12-18T14:45:52;3.77;;;2.77;;
12585;SDS011;6358;50.760;0.282;2022-12-18T14:48:19;4.00;;;2.60;;
12585;SDS011;6358;50.760;0.282;2022-12-18T14:50:53;3.77;;;2.80;;
12585;SDS011;6358;50.760;0.282;2022-12-18T14:53:22;5.17;;;2.70;;
12585;SDS011;6358;50.760;0.282;2022-12-18T14:55:49;3.87;;;2.70;;
12585;SDS011;6358;50.760;0.282;2022-12-18T14:58:16;4.97;;;3.00;;
12585;SDS011;6358;50.760;0.282;2022-12-18T15:00:43;4.57;;;2.50;;
12585;SDS011;6358;50.760;0.282;2022-12-18T15:03:09;5.33;;;2.90;;
12585;SDS011;6358;50.760;0.282;2022-12-18T15:05:35;4.53;;;3.00;;
12585;SDS011;6358;50.760;0.282;2022-12-18T15:08:01;4.37;;;2.90;;
12585;SDS011;6358;50.760;0.282;2022-12-18T15:10:29;3.00;;;2.67;;
12585;SDS011;6358;50.760;0.282;2022-12-18T15:25:45;4.17;;;2.90;;
12585;SDS011;6358;50.760;0.282;2022-12-18T15:31:05;5.20;;;2.90;;
12585;SDS011;6358;50.760;0.282;2022-12-18T15:33:35;4.50;;;2.87;;
12585;SDS011;6358;50.760;0.282;2022-12-18T15:36:03;3.87;;;2.70;;
12585;SDS011;6358;50.760;0.282;2022-12-18T15:38:29;5.07;;;3.20;;
12585;SDS011;6358;50.760;0.282;2022-12-18T15:40:55;3.00;;;2.67;;
12585;SDS011;6358;50.760;0.282;2022-12-18T15:43:22;3.07;;;2.50;;
12585;SDS011;6358;50.760;0.282;2022-12-18T15:46:11;5.83;;;3.33;;
12585;SDS011;6358;50.760;0.282;2022-12-18T15:48:41;4.47;;;2.90;;
12585;SDS011;6358;50.760;0.282;2022-12-18T15:51:18;5.20;;;3.00;;
12585;SDS011;6358;50.760;0.282;2022-12-18T15:53:45;6.70;;;3.03;;
12585;SDS011;6358;50.760;0.282;2022-12-18T15:56:12;13.37;;;3.40;;
12585;SDS011;6358;50.760;0.282;2022-12-18T15:58:57;4.03;;;2.93;;
12585;SDS011;6358;50.760;0.282;2022-12-18T16:01:27;5.07;;;3.10;;
12585;SDS011;6358;50.760;0.282;2022-12-18T16:03:54;4.37;;;2.97;;
12585;SDS011;6358;50.760;0.282;2022-12-18T16:06:21;4.73;;;3.00;;
12585;SDS011;6358;50.760;0.282;2022-12-18T16:08:47;6.17;;;3.20;;
12585;SDS011;6358;50.760;0.282;2022-12-18T16:11:24;5.47;;;3.10;;
12585;SDS011;6358;50.760;0.282;2022-12-18T16:16:41;3.83;;;2.90;;
12585;SDS011;6358;50.760;0.282;2022-12-18T16:19:07;4.33;;;3.20;;
12585;SDS011;6358;50.760;0.282;2022-12-18T16:21:33;7.80;;;3.60;;
12585;SDS011;6358;50.760;0.282;2022-12-18T16:24:00;5.73;;;3.10;;
12585;SDS011;6358;50.760;0.282;2022-12-18T16:26:26;6.07;;;3.53;;
12585;SDS011;6358;50.760;0.282;2022-12-18T16:28:52;7.80;;;3.43;;
12585;SDS011;6358;50.760;0.282;2022-12-18T16:31:18;7.60;;;3.87;;
12585;SDS011;6358;50.760;0.282;2022-12-18T16:33:45;6.30;;;3.50;;
12585;SDS011;6358;50.760;0.282;2022-12-18T16:36:12;8.83;;;3.60;;
12585;SDS011;6358;50.760;0.282;2022-12-18T16:38:38;8.37;;;3.97;;
12585;SDS011;6358;50.760;0.282;2022-12-18T16:41:19;6.50;;;3.93;;
12585;SDS011;6358;50.760;0.282;2022-12-18T16:43:58;5.53;;;3.70;;
12585;SDS011;6358;50.760;0.282;2022-12-18T16:46:24;7.97;;;3.70;;
12585;SDS011;6358;50.760;0.282;2022-12-18T16:48:50;9.20;;;4.00;;
12585;SDS011;6358;50.760;0.282;2022-12-18T16:51:16;7.53;;;4.10;;
12585;SDS011;6358;50.760;0.282;2022-12-18T16:53:43;5.80;;;3.57;;
12585;SDS011;6358;50.760;0.282;2022-12-18T16:56:09;6.13;;;3.50;;
12585;SDS011;6358;50.760;0.282;2022-12-18T16:58:35;7.07;;;3.53;;
12585;SDS011;6358;50.760;0.282;2022-12-18T17:01:01;7.30;;;3.97;;
12585;SDS011;6358;50.760;0.282;2022-12-18T17:03:32;7.40;;;3.73;;